Terminal Aerodrome Forecast
Issued by NWS

Home | Current Version | Previous Version | Text Only | Print | Product List | Glossary Off
Versions: 1 2 3 4 5 6 7 8 9 10 11 12 13 14 15 16 17 18 19 20

000
FTUS43 KMPX 230520
TAFRNH
TAF
KRNH 230520Z 2306/2406 VRB03KT P6SM FEW250
     FM230900 00000KT 4SM BR FEW002
     FM231400 12008KT P6SM SCT035 BKN150
      TEMPO 2316/2320 3SM TSRA BKN035CB
     FM232000 15011KT P6SM SCT040 BKN090
      TEMPO 2323/2403 3SM TSRA BKN035CB
     FM240300 18009KT 6SM -SHRA SCT030 BKN050=

USA.gov is the U.S. government's official web portal to all federal, state and local government web resources and services.